sensor_id;sensor_type;location;lat;lon;timestamp;pressure;altitude;pressure_sealevel;temperature;humidity
17362;BME280;8798;51.938;4.348;2024-02-23T00:01:04;97663.00;;;6.93;96.79
17362;BME280;8798;51.938;4.348;2024-02-23T00:03:32;97672.84;;;6.92;97.59
17362;BME280;8798;51.938;4.348;2024-02-23T00:06:01;97691.31;;;6.94;97.03
17362;BME280;8798;51.938;4.348;2024-02-23T00:08:30;97706.91;;;6.97;97.07
17362;BME280;8798;51.938;4.348;2024-02-23T00:10:58;97731.34;;;7.00;97.35
17362;BME280;8798;51.938;4.348;2024-02-23T00:13:27;97745.50;;;7.01;96.96
17362;BME280;8798;51.938;4.348;2024-02-23T00:15:54;97699.94;;;6.89;96.46
17362;BME280;8798;51.938;4.348;2024-02-23T00:18:22;97634.09;;;6.70;97.19
17362;BME280;8798;51.938;4.348;2024-02-23T00:20:50;97606.00;;;6.60;97.61
17362;BME280;8798;51.938;4.348;2024-02-23T00:23:18;97577.31;;;6.49;97.57
17362;BME280;8798;51.938;4.348;2024-02-23T00:25:48;97571.78;;;6.44;96.16
17362;BME280;8798;51.938;4.348;2024-02-23T00:28:16;97576.50;;;6.42;97.16
17362;BME280;8798;51.938;4.348;2024-02-23T00:30:44;97580.81;;;6.43;97.36
17362;BME280;8798;51.938;4.348;2024-02-23T00:33:12;97600.06;;;6.45;96.68
17362;BME280;8798;51.938;4.348;2024-02-23T00:35:39;97621.19;;;6.46;97.14
17362;BME280;8798;51.938;4.348;2024-02-23T00:38:08;97644.56;;;6.51;96.77
17362;BME280;8798;51.938;4.348;2024-02-23T00:40:36;97683.13;;;6.55;97.01
17362;BME280;8798;51.938;4.348;2024-02-23T00:43:06;97703.25;;;6.58;97.20
17362;BME280;8798;51.938;4.348;2024-02-23T00:45:34;97718.00;;;6.60;96.91
17362;BME280;8798;51.938;4.348;2024-02-23T00:48:02;97734.81;;;6.61;97.22
17362;BME280;8798;51.938;4.348;2024-02-23T00:50:30;97740.16;;;6.61;96.44
17362;BME280;8798;51.938;4.348;2024-02-23T00:52:58;97743.84;;;6.60;96.53
17362;BME280;8798;51.938;4.348;2024-02-23T00:55:26;97755.53;;;6.59;96.41
17362;BME280;8798;51.938;4.348;2024-02-23T00:57:54;97749.59;;;6.57;96.73
17362;BME280;8798;51.938;4.348;2024-02-23T01:00:24;97759.44;;;6.56;96.75
17362;BME280;8798;51.938;4.348;2024-02-23T01:02:51;97770.09;;;6.56;96.60
17362;BME280;8798;51.938;4.348;2024-02-23T01:05:19;97774.00;;;6.54;96.46
17362;BME280;8798;51.938;4.348;2024-02-23T01:07:48;97769.66;;;6.53;96.80
17362;BME280;8798;51.938;4.348;2024-02-23T01:10:16;97776.22;;;6.50;96.95
17362;BME280;8798;51.938;4.348;2024-02-23T01:12:44;97780.75;;;6.50;97.26
17362;BME280;8798;51.938;4.348;2024-02-23T01:15:12;97789.78;;;6.49;96.66
17362;BME280;8798;51.938;4.348;2024-02-23T01:17:41;97791.81;;;6.46;96.88
17362;BME280;8798;51.938;4.348;2024-02-23T01:20:10;97796.53;;;6.44;96.66
17362;BME280;8798;51.938;4.348;2024-02-23T01:22:38;97790.56;;;6.42;96.15
17362;BME280;8798;51.938;4.348;2024-02-23T01:25:06;97799.78;;;6.40;96.79
17362;BME280;8798;51.938;4.348;2024-02-23T01:27:37;97800.00;;;6.38;96.82
17362;BME280;8798;51.938;4.348;2024-02-23T01:30:07;97801.81;;;6.38;96.28
17362;BME280;8798;51.938;4.348;2024-02-23T01:32:35;97811.69;;;6.37;96.50
17362;BME280;8798;51.938;4.348;2024-02-23T01:35:07;97830.97;;;6.39;96.21
17362;BME280;8798;51.938;4.348;2024-02-23T01:37:36;97858.88;;;6.43;97.29
17362;BME280;8798;51.938;4.348;2024-02-23T01:40:05;97864.22;;;6.43;96.66
17362;BME280;8798;51.938;4.348;2024-02-23T01:42:33;97883.50;;;6.45;96.53
17362;BME280;8798;51.938;4.348;2024-02-23T01:45:01;97892.09;;;6.47;97.12
17362;BME280;8798;51.938;4.348;2024-02-23T01:47:30;97921.25;;;6.49;96.85
17362;BME280;8798;51.938;4.348;2024-02-23T01:49:59;97930.69;;;6.52;96.94
17362;BME280;8798;51.938;4.348;2024-02-23T01:52:28;97951.59;;;6.55;96.91
17362;BME280;8798;51.938;4.348;2024-02-23T01:54:57;97972.56;;;6.58;97.25
17362;BME280;8798;51.938;4.348;2024-02-23T01:57:28;97973.56;;;6.57;97.32
17362;BME280;8798;51.938;4.348;2024-02-23T02:00:17;98002.31;;;6.61;96.18
17362;BME280;8798;51.938;4.348;2024-02-23T02:02:46;98024.06;;;6.65;96.66
17362;BME280;8798;51.938;4.348;2024-02-23T02:05:14;98042.56;;;6.66;96.29
17362;BME280;8798;51.938;4.348;2024-02-23T02:07:45;98055.69;;;6.68;97.62
17362;BME280;8798;51.938;4.348;2024-02-23T02:10:15;98068.00;;;6.69;96.49
17362;BME280;8798;51.938;4.348;2024-02-23T02:12:44;98068.19;;;6.67;97.25
17362;BME280;8798;51.938;4.348;2024-02-23T02:15:12;98066.75;;;6.65;97.10
17362;BME280;8798;51.938;4.348;2024-02-23T02:17:40;98065.91;;;6.64;96.76
17362;BME280;8798;51.938;4.348;2024-02-23T02:20:11;98073.28;;;6.62;96.43
17362;BME280;8798;51.938;4.348;2024-02-23T02:22:40;98071.66;;;6.61;97.17
17362;BME280;8798;51.938;4.348;2024-02-23T02:25:10;98074.31;;;6.61;97.05
17362;BME280;8798;51.938;4.348;2024-02-23T02:27:37;98084.19;;;6.61;97.46
17362;BME280;8798;51.938;4.348;2024-02-23T02:30:06;98101.63;;;6.63;96.79
17362;BME280;8798;51.938;4.348;2024-02-23T02:32:36;98124.19;;;6.67;96.94
17362;BME280;8798;51.938;4.348;2024-02-23T02:35:04;98132.03;;;6.69;96.75
17362;BME280;8798;51.938;4.348;2024-02-23T02:37:32;98133.41;;;6.65;97.15
17362;BME280;8798;51.938;4.348;2024-02-23T02:40:00;98121.28;;;6.62;96.84
17362;BME280;8798;51.938;4.348;2024-02-23T02:42:30;98115.53;;;6.59;96.70
17362;BME280;8798;51.938;4.348;2024-02-23T02:44:58;98108.13;;;6.54;97.07
17362;BME280;8798;51.938;4.348;2024-02-23T02:47:26;98101.34;;;6.52;97.33
17362;BME280;8798;51.938;4.348;2024-02-23T02:49:54;98106.84;;;6.50;97.03
17362;BME280;8798;51.938;4.348;2024-02-23T02:52:23;98103.56;;;6.48;96.56
17362;BME280;8798;51.938;4.348;2024-02-23T02:54:51;98100.28;;;6.46;96.60
17362;BME280;8798;51.938;4.348;2024-02-23T02:57:19;98109.91;;;6.47;96.60
17362;BME280;8798;51.938;4.348;2024-02-23T02:59:48;98120.78;;;6.45;96.67
17362;BME280;8798;51.938;4.348;2024-02-23T03:02:17;98120.16;;;6.43;97.10
17362;BME280;8798;51.938;4.348;2024-02-23T03:04:48;98100.84;;;6.41;97.53
17362;BME280;8798;51.938;4.348;2024-02-23T03:07:16;98111.91;;;6.38;97.27
17362;BME280;8798;51.938;4.348;2024-02-23T03:09:44;98105.13;;;6.36;96.89
17362;BME280;8798;51.938;4.348;2024-02-23T03:12:13;98106.34;;;6.33;96.52
17362;BME280;8798;51.938;4.348;2024-02-23T03:14:41;98105.31;;;6.34;96.81
17362;BME280;8798;51.938;4.348;2024-02-23T03:17:10;98126.63;;;6.34;96.72
17362;BME280;8798;51.938;4.348;2024-02-23T03:19:38;98113.69;;;6.31;96.87
17362;BME280;8798;51.938;4.348;2024-02-23T03:22:06;98100.13;;;6.26;97.27
17362;BME280;8798;51.938;4.348;2024-02-23T03:24:34;98093.53;;;6.22;96.72
17362;BME280;8798;51.938;4.348;2024-02-23T03:27:03;98090.22;;;6.20;96.71
17362;BME280;8798;51.938;4.348;2024-02-23T03:29:31;98093.28;;;6.17;96.59
17362;BME280;8798;51.938;4.348;2024-02-23T03:32:00;98081.97;;;6.15;97.01
17362;BME280;8798;51.938;4.348;2024-02-23T03:34:29;98082.38;;;6.12;97.55
17362;BME280;8798;51.938;4.348;2024-02-23T03:36:57;98079.88;;;6.10;96.16
17362;BME280;8798;51.938;4.348;2024-02-23T03:39:28;98075.78;;;6.08;97.04
17362;BME280;8798;51.938;4.348;2024-02-23T03:41:56;98075.97;;;6.06;97.26
17362;BME280;8798;51.938;4.348;2024-02-23T03:44:24;98074.53;;;6.03;97.07
17362;BME280;8798;51.938;4.348;2024-02-23T03:46:52;98070.41;;;6.01;96.06
17362;BME280;8798;51.938;4.348;2024-02-23T03:49:20;98080.22;;;6.00;97.19
17362;BME280;8798;51.938;4.348;2024-02-23T03:51:49;98076.09;;;5.98;96.70
17362;BME280;8798;51.938;4.348;2024-02-23T03:54:17;98082.44;;;5.97;97.42
17362;BME280;8798;51.938;4.348;2024-02-23T03:56:45;98082.63;;;5.95;97.35
17362;BME280;8798;51.938;4.348;2024-02-23T03:59:13;98083.66;;;5.94;97.24
17362;BME280;8798;51.938;4.348;2024-02-23T04:01:41;98092.47;;;5.95;96.53
17362;BME280;8798;51.938;4.348;2024-02-23T04:04:10;98101.28;;;5.95;97.03
17362;BME280;8798;51.938;4.348;2024-02-23T04:06:38;98115.41;;;5.96;97.23
17362;BME280;8798;51.938;4.348;2024-02-23T04:09:07;98119.09;;;5.95;96.39
17362;BME280;8798;51.938;4.348;2024-02-23T04:11:35;98120.94;;;5.94;97.08
17362;BME280;8798;51.938;4.348;2024-02-23T04:14:03;98128.13;;;5.94;96.76
17362;BME280;8798;51.938;4.348;2024-02-23T04:16:32;98129.75;;;5.95;96.10
17362;BME280;8798;51.938;4.348;2024-02-23T04:19:00;98147.38;;;5.96;96.93
17362;BME280;8798;51.938;4.348;2024-02-23T04:21:28;98160.53;;;5.97;97.33
17362;BME280;8798;51.938;4.348;2024-02-23T04:23:56;98179.81;;;5.99;96.73
17362;BME280;8798;51.938;4.348;2024-02-23T04:26:26;98192.75;;;6.02;96.97
17362;BME280;8798;51.938;4.348;2024-02-23T04:28:54;98212.88;;;6.05;97.37
17362;BME280;8798;51.938;4.348;2024-02-23T04:31:22;98231.97;;;6.09;96.06
17362;BME280;8798;51.938;4.348;2024-02-23T04:33:50;98249.22;;;6.13;96.45
17362;BME280;8798;51.938;4.348;2024-02-23T04:36:19;98255.41;;;6.13;96.69
17362;BME280;8798;51.938;4.348;2024-02-23T04:38:47;98276.34;;;6.16;96.36
17362;BME280;8798;51.938;4.348;2024-02-23T04:41:19;98292.13;;;6.18;97.19
17362;BME280;8798;51.938;4.348;2024-02-23T04:43:48;98300.97;;;6.18;97.49
17362;BME280;8798;51.938;4.348;2024-02-23T04:46:17;98314.09;;;6.20;97.06
17362;BME280;8798;51.938;4.348;2024-02-23T04:48:45;98323.75;;;6.21;97.17
17362;BME280;8798;51.938;4.348;2024-02-23T04:51:13;98329.69;;;6.23;96.23
17362;BME280;8798;51.938;4.348;2024-02-23T04:53:41;98343.69;;;6.25;97.03
17362;BME280;8798;51.938;4.348;2024-02-23T04:56:09;98362.16;;;6.27;96.72
17362;BME280;8798;51.938;4.348;2024-02-23T04:58:37;98382.94;;;6.31;97.10
17362;BME280;8798;51.938;4.348;2024-02-23T05:01:06;98390.72;;;6.33;96.52
17362;BME280;8798;51.938;4.348;2024-02-23T05:03:34;98404.06;;;6.33;96.67
17362;BME280;8798;51.938;4.348;2024-02-23T05:06:03;98410.41;;;6.32;96.52
17362;BME280;8798;51.938;4.348;2024-02-23T05:08:31;98403.25;;;6.32;96.75
17362;BME280;8798;51.938;4.348;2024-02-23T05:10:59;98413.06;;;6.32;97.00
17362;BME280;8798;51.938;4.348;2024-02-23T05:13:28;98418.41;;;6.32;96.15
17362;BME280;8798;51.938;4.348;2024-02-23T05:15:56;98416.38;;;6.34;96.71
17362;BME280;8798;51.938;4.348;2024-02-23T05:18:26;98425.22;;;6.34;96.69
17362;BME280;8798;51.938;4.348;2024-02-23T05:20:54;98438.53;;;6.34;96.74
17362;BME280;8798;51.938;4.348;2024-02-23T05:23:22;98432.56;;;6.32;96.88
17362;BME280;8798;51.938;4.348;2024-02-23T05:25:49;98436.91;;;6.33;97.38
17362;BME280;8798;51.938;4.348;2024-02-23T05:28:18;98436.91;;;6.33;96.71
17362;BME280;8798;51.938;4.348;2024-02-23T05:30:46;98461.50;;;6.35;96.74
17362;BME280;8798;51.938;4.348;2024-02-23T05:33:14;98474.50;;;6.38;97.10
17362;BME280;8798;51.938;4.348;2024-02-23T05:35:43;98479.81;;;6.38;97.29
17362;BME280;8798;51.938;4.348;2024-02-23T05:38:12;98484.13;;;6.39;96.82
17362;BME280;8798;51.938;4.348;2024-02-23T05:40:40;98486.63;;;6.41;96.89
17362;BME280;8798;51.938;4.348;2024-02-23T05:43:07;98500.63;;;6.43;96.56
17362;BME280;8798;51.938;4.348;2024-02-23T05:45:35;98511.06;;;6.44;96.22
17362;BME280;8798;51.938;4.348;2024-02-23T05:48:04;98518.91;;;6.46;97.16
17362;BME280;8798;51.938;4.348;2024-02-23T05:50:32;98527.56;;;6.48;96.69
17362;BME280;8798;51.938;4.348;2024-02-23T05:53:01;98546.66;;;6.52;96.70
17362;BME280;8798;51.938;4.348;2024-02-23T05:55:31;98563.31;;;6.54;97.36
17362;BME280;8798;51.938;4.348;2024-02-23T05:57:59;98572.13;;;6.54;96.91
17362;BME280;8798;51.938;4.348;2024-02-23T06:00:27;98567.63;;;6.55;97.55
17362;BME280;8798;51.938;4.348;2024-02-23T06:02:55;98565.16;;;6.53;97.47
17362;BME280;8798;51.938;4.348;2024-02-23T06:05:23;98571.31;;;6.54;97.29
17362;BME280;8798;51.938;4.348;2024-02-23T06:07:54;98577.47;;;6.54;96.69
17362;BME280;8798;51.938;4.348;2024-02-23T06:10:24;98586.13;;;6.56;97.03
17362;BME280;8798;51.938;4.348;2024-02-23T06:12:52;98597.44;;;6.58;96.66
17362;BME280;8798;51.938;4.348;2024-02-23T06:15:22;98605.25;;;6.60;96.15
17362;BME280;8798;51.938;4.348;2024-02-23T06:17:50;98601.75;;;6.59;97.70
17362;BME280;8798;51.938;4.348;2024-02-23T06:20:19;98601.97;;;6.58;96.97
17362;BME280;8798;51.938;4.348;2024-02-23T06:22:47;98590.63;;;6.56;97.18
17362;BME280;8798;51.938;4.348;2024-02-23T06:25:15;98587.16;;;6.55;96.54
17362;BME280;8798;51.938;4.348;2024-02-23T06:27:44;98591.63;;;6.55;96.22
17362;BME280;8798;51.938;4.348;2024-02-23T06:30:12;98584.81;;;6.52;97.08
17362;BME280;8798;51.938;4.348;2024-02-23T06:32:40;98580.50;;;6.51;96.74
17362;BME280;8798;51.938;4.348;2024-02-23T06:35:09;98593.84;;;6.51;97.36
17362;BME280;8798;51.938;4.348;2024-02-23T06:37:39;98589.34;;;6.52;97.15
17362;BME280;8798;51.938;4.348;2024-02-23T06:40:08;98595.50;;;6.52;97.19
17362;BME280;8798;51.938;4.348;2024-02-23T06:42:36;98587.50;;;6.52;96.80
17362;BME280;8798;51.938;4.348;2024-02-23T06:45:06;98603.97;;;6.56;97.26
17362;BME280;8798;51.938;4.348;2024-02-23T06:47:34;98612.97;;;6.55;96.56
17362;BME280;8798;51.938;4.348;2024-02-23T06:50:04;98614.00;;;6.54;96.84
17362;BME280;8798;51.938;4.348;2024-02-23T06:52:32;98618.28;;;6.55;96.69
17362;BME280;8798;51.938;4.348;2024-02-23T06:55:00;98614.00;;;6.54;97.45
17362;BME280;8798;51.938;4.348;2024-02-23T06:57:28;98607.84;;;6.53;97.30
17362;BME280;8798;51.938;4.348;2024-02-23T06:59:57;98606.97;;;6.53;96.71
17362;BME280;8798;51.938;4.348;2024-02-23T07:02:27;98611.50;;;6.52;96.42
17362;BME280;8798;51.938;4.348;2024-02-23T07:04:58;98610.84;;;6.50;97.11
17362;BME280;8798;51.938;4.348;2024-02-23T07:07:26;98609.19;;;6.49;96.12
17362;BME280;8798;51.938;4.348;2024-02-23T07:09:55;98613.50;;;6.50;96.89
17362;BME280;8798;51.938;4.348;2024-02-23T07:12:23;98609.84;;;6.51;96.92
17362;BME280;8798;51.938;4.348;2024-02-23T07:14:52;98606.69;;;6.47;96.80
17362;BME280;8798;51.938;4.348;2024-02-23T07:17:20;98602.38;;;6.46;96.77
17362;BME280;8798;51.938;4.348;2024-02-23T07:19:50;98599.06;;;6.44;97.46
17362;BME280;8798;51.938;4.348;2024-02-23T07:22:19;98593.09;;;6.42;96.67
17362;BME280;8798;51.938;4.348;2024-02-23T07:24:47;98579.28;;;6.39;97.09
17362;BME280;8798;51.938;4.348;2024-02-23T07:27:16;98557.84;;;6.32;96.73
17362;BME280;8798;51.938;4.348;2024-02-23T07:29:44;98538.09;;;6.27;97.16
17362;BME280;8798;51.938;4.348;2024-02-23T07:32:12;98503.53;;;6.18;96.53
17362;BME280;8798;51.938;4.348;2024-02-23T07:34:40;98481.28;;;6.11;97.18
17362;BME280;8798;51.938;4.348;2024-02-23T07:37:09;98463.16;;;6.07;97.17
17362;BME280;8798;51.938;4.348;2024-02-23T07:39:37;98446.25;;;5.99;97.06
17362;BME280;8798;51.938;4.348;2024-02-23T07:42:05;98428.97;;;5.95;97.15
17362;BME280;8798;51.938;4.348;2024-02-23T07:44:35;98419.66;;;5.91;96.69
17362;BME280;8798;51.938;4.348;2024-02-23T07:47:04;98413.69;;;5.89;97.38
17362;BME280;8798;51.938;4.348;2024-02-23T07:49:32;98406.69;;;5.88;96.58
17362;BME280;8798;51.938;4.348;2024-02-23T07:52:00;98420.00;;;5.88;96.82
17362;BME280;8798;51.938;4.348;2024-02-23T07:54:30;98420.66;;;5.90;97.06
17362;BME280;8798;51.938;4.348;2024-02-23T07:56:58;98427.84;;;5.90;97.04
17362;BME280;8798;51.938;4.348;2024-02-23T07:59:26;98436.66;;;5.90;96.78
17362;BME280;8798;51.938;4.348;2024-02-23T08:01:55;98444.63;;;5.90;97.40
17362;BME280;8798;51.938;4.348;2024-02-23T08:04:23;98449.81;;;5.92;96.94
17362;BME280;8798;51.938;4.348;2024-02-23T08:06:51;98458.47;;;5.94;96.47
17362;BME280;8798;51.938;4.348;2024-02-23T08:09:18;98464.75;;;5.93;96.31
17362;BME280;8798;51.938;4.348;2024-02-23T08:11:50;98463.81;;;5.94;96.11
17362;BME280;8798;51.938;4.348;2024-02-23T08:14:19;98467.28;;;5.94;96.39
17362;BME280;8798;51.938;4.348;2024-02-23T08:16:47;98481.44;;;5.95;96.49
17362;BME280;8798;51.938;4.348;2024-02-23T08:19:16;98498.53;;;6.00;97.18
17362;BME280;8798;51.938;4.348;2024-02-23T08:21:44;98521.31;;;6.03;97.67
17362;BME280;8798;51.938;4.348;2024-02-23T08:24:11;98520.50;;;6.02;97.62
17362;BME280;8798;51.938;4.348;2024-02-23T08:26:39;98522.34;;;6.02;97.19
17362;BME280;8798;51.938;4.348;2024-02-23T08:29:09;98526.66;;;6.03;97.19
17362;BME280;8798;51.938;4.348;2024-02-23T08:31:38;98527.50;;;6.03;97.26
17362;BME280;8798;51.938;4.348;2024-02-23T08:34:08;98536.31;;;6.04;96.68
17362;BME280;8798;51.938;4.348;2024-02-23T08:36:36;98542.28;;;6.06;97.49
17362;BME280;8798;51.938;4.348;2024-02-23T08:39:04;98549.25;;;6.07;97.38
17362;BME280;8798;51.938;4.348;2024-02-23T08:41:31;98561.41;;;6.10;96.50
17362;BME280;8798;51.938;4.348;2024-02-23T08:43:59;98578.03;;;6.12;96.77
17362;BME280;8798;51.938;4.348;2024-02-23T08:46:29;98597.00;;;6.17;96.69
17362;BME280;8798;51.938;4.348;2024-02-23T08:48:57;98607.47;;;6.18;97.42
17362;BME280;8798;51.938;4.348;2024-02-23T08:51:25;98631.75;;;6.23;97.31
17362;BME280;8798;51.938;4.348;2024-02-23T08:53:53;98656.03;;;6.29;96.72
17362;BME280;8798;51.938;4.348;2024-02-23T08:56:26;98662.66;;;6.33;97.18
17362;BME280;8798;51.938;4.348;2024-02-23T08:58:54;98683.66;;;6.36;97.32
17362;BME280;8798;51.938;4.348;2024-02-23T09:01:22;98692.47;;;6.36;97.23
17362;BME280;8798;51.938;4.348;2024-02-23T09:03:51;98700.09;;;6.39;96.87
17362;BME280;8798;51.938;4.348;2024-02-23T09:06:20;98719.06;;;6.44;97.13
17362;BME280;8798;51.938;4.348;2024-02-23T09:08:48;98733.72;;;6.49;96.56
17362;BME280;8798;51.938;4.348;2024-02-23T09:11:16;98761.50;;;6.54;97.13
17362;BME280;8798;51.938;4.348;2024-02-23T09:13:44;98786.63;;;6.60;97.02
17362;BME280;8798;51.938;4.348;2024-02-23T09:16:12;98799.63;;;6.63;96.90
17362;BME280;8798;51.938;4.348;2024-02-23T09:18:41;98816.09;;;6.66;97.31
17362;BME280;8798;51.938;4.348;2024-02-23T09:21:10;98821.06;;;6.70;96.34
17362;BME280;8798;51.938;4.348;2024-02-23T09:23:38;98829.91;;;6.70;97.10
17362;BME280;8798;51.938;4.348;2024-02-23T09:26:09;98836.75;;;6.73;97.61
17362;BME280;8798;51.938;4.348;2024-02-23T09:28:38;98847.03;;;6.76;97.01
17362;BME280;8798;51.938;4.348;2024-02-23T09:31:08;98867.22;;;6.78;97.19
17362;BME280;8798;51.938;4.348;2024-02-23T09:33:37;98872.19;;;6.81;96.82
17362;BME280;8798;51.938;4.348;2024-02-23T09:36:05;98887.84;;;6.84;96.61
17362;BME280;8798;51.938;4.348;2024-02-23T09:38:34;98905.16;;;6.88;96.75
17362;BME280;8798;51.938;4.348;2024-02-23T09:41:03;98924.16;;;6.94;96.77
17362;BME280;8798;51.938;4.348;2024-02-23T09:43:32;98935.47;;;6.96;97.09
17362;BME280;8798;51.938;4.348;2024-02-23T09:46:00;98959.81;;;7.01;96.36
17362;BME280;8798;51.938;4.348;2024-02-23T09:48:29;98968.28;;;7.04;97.13
17362;BME280;8798;51.938;4.348;2024-02-23T09:51:01;98989.09;;;7.09;96.57
17362;BME280;8798;51.938;4.348;2024-02-23T09:53:30;99007.09;;;7.15;97.00
17362;BME280;8798;51.938;4.348;2024-02-23T09:56:00;99020.94;;;7.19;97.51
17362;BME280;8798;51.938;4.348;2024-02-23T09:58:29;99040.13;;;7.22;96.62
17362;BME280;8798;51.938;4.348;2024-02-23T10:00:59;99054.75;;;7.26;96.83
17362;BME280;8798;51.938;4.348;2024-02-23T10:03:29;99081.25;;;7.36;97.04
17362;BME280;8798;51.938;4.348;2024-02-23T10:05:58;99145.44;;;7.51;96.89
17362;BME280;8798;51.938;4.348;2024-02-23T10:08:28;99207.81;;;7.66;97.45
17362;BME280;8798;51.938;4.348;2024-02-23T10:10:56;99228.34;;;7.74;97.37
17362;BME280;8798;51.938;4.348;2024-02-23T10:13:25;99258.06;;;7.79;96.78
17362;BME280;8798;51.938;4.348;2024-02-23T10:15:53;99278.75;;;7.85;97.46
17362;BME280;8798;51.938;4.348;2024-02-23T10:18:40;99264.72;;;7.83;96.90
17362;BME280;8798;51.938;4.348;2024-02-23T10:21:08;99268.22;;;7.84;97.02
17362;BME280;8798;51.938;4.348;2024-02-23T10:23:36;99287.06;;;7.90;96.77
17362;BME280;8798;51.938;4.348;2024-02-23T10:26:04;99309.59;;;7.96;96.80
17362;BME280;8798;51.938;4.348;2024-02-23T10:28:34;99297.25;;;7.95;96.60
17362;BME280;8798;51.938;4.348;2024-02-23T10:31:02;99292.72;;;7.95;96.52
17362;BME280;8798;51.938;4.348;2024-02-23T10:33:31;99293.75;;;7.94;97.13
17362;BME280;8798;51.938;4.348;2024-02-23T10:36:00;99280.53;;;7.93;97.16
17362;BME280;8798;51.938;4.348;2024-02-23T10:38:32;99254.00;;;7.91;96.75
17362;BME280;8798;51.938;4.348;2024-02-23T10:41:04;99241.16;;;7.87;96.85
17362;BME280;8798;51.938;4.348;2024-02-23T10:43:40;99227.94;;;7.85;96.90
17362;BME280;8798;51.938;4.348;2024-02-23T10:46:15;99249.47;;;7.92;96.68
17362;BME280;8798;51.938;4.348;2024-02-23T10:48:44;99251.97;;;7.93;96.50
17362;BME280;8798;51.938;4.348;2024-02-23T10:51:17;99276.34;;;7.98;96.96
17362;BME280;8798;51.938;4.348;2024-02-23T10:53:48;99303.06;;;8.07;96.79
17362;BME280;8798;51.938;4.348;2024-02-23T10:56:17;99336.78;;;8.16;96.52
17362;BME280;8798;51.938;4.348;2024-02-23T10:58:46;99371.50;;;8.24;97.25
17362;BME280;8798;51.938;4.348;2024-02-23T11:01:15;99393.22;;;8.29;97.13
17362;BME280;8798;51.938;4.348;2024-02-23T11:03:45;99398.06;;;8.34;97.36
17362;BME280;8798;51.938;4.348;2024-02-23T11:06:19;99417.09;;;8.39;96.84
17362;BME280;8798;51.938;4.348;2024-02-23T11:08:49;99430.81;;;8.44;96.68
17362;BME280;8798;51.938;4.348;2024-02-23T11:11:18;99449.19;;;8.47;97.22
17362;BME280;8798;51.938;4.348;2024-02-23T11:13:47;99475.75;;;8.57;97.06
17362;BME280;8798;51.938;4.348;2024-02-23T11:16:21;99472.06;;;8.58;97.13
17362;BME280;8798;51.938;4.348;2024-02-23T11:19:03;99484.28;;;8.60;97.32
17362;BME280;8798;51.938;4.348;2024-02-23T11:21:35;99492.63;;;8.66;97.25
17362;BME280;8798;51.938;4.348;2024-02-23T11:24:05;99532.59;;;8.75;96.94
17362;BME280;8798;51.938;4.348;2024-02-23T11:26:36;99531.41;;;8.78;96.99
17362;BME280;8798;51.938;4.348;2024-02-23T11:29:11;99500.78;;;8.72;96.88
17362;BME280;8798;51.938;4.348;2024-02-23T11:31:44;99511.16;;;8.75;96.95
17362;BME280;8798;51.938;4.348;2024-02-23T11:34:12;99510.97;;;8.77;96.86
17362;BME280;8798;51.938;4.348;2024-02-23T11:36:40;99507.13;;;8.79;96.84
17362;BME280;8798;51.938;4.348;2024-02-23T11:39:09;99550.78;;;8.88;97.04
17362;BME280;8798;51.938;4.348;2024-02-23T11:41:38;99566.97;;;8.95;97.76
17362;BME280;8798;51.938;4.348;2024-02-23T11:44:06;99593.06;;;9.01;96.91
17362;BME280;8798;51.938;4.348;2024-02-23T11:46:35;99602.25;;;9.07;96.86
17362;BME280;8798;51.938;4.348;2024-02-23T11:49:03;99605.59;;;9.09;97.00
17362;BME280;8798;51.938;4.348;2024-02-23T11:51:31;99614.28;;;9.11;96.56
17362;BME280;8798;51.938;4.348;2024-02-23T11:54:00;99601.06;;;9.09;96.92
17362;BME280;8798;51.938;4.348;2024-02-23T11:56:29;99599.88;;;9.12;97.62
17362;BME280;8798;51.938;4.348;2024-02-23T11:58:57;99612.75;;;9.16;97.04
17362;BME280;8798;51.938;4.348;2024-02-23T12:01:28;99626.66;;;9.20;97.05
17362;BME280;8798;51.938;4.348;2024-02-23T12:03:58;99666.28;;;9.33;96.56
17362;BME280;8798;51.938;4.348;2024-02-23T12:06:27;99701.94;;;9.41;97.00
17362;BME280;8798;51.938;4.348;2024-02-23T12:08:57;99735.22;;;9.55;96.90
17362;BME280;8798;51.938;4.348;2024-02-23T12:11:25;99756.16;;;9.60;97.17
17362;BME280;8798;51.938;4.348;2024-02-23T12:13:55;99788.97;;;9.70;96.93
17362;BME280;8798;51.938;4.348;2024-02-23T12:16:26;99835.88;;;9.82;96.74
17362;BME280;8798;51.938;4.348;2024-02-23T12:18:55;99869.53;;;9.93;96.79
17362;BME280;8798;51.938;4.348;2024-02-23T12:21:24;99894.50;;;10.02;96.86
17362;BME280;8798;51.938;4.348;2024-02-23T12:23:52;99899.34;;;10.06;97.30
17362;BME280;8798;51.938;4.348;2024-02-23T12:26:20;99927.13;;;10.13;96.43
17362;BME280;8798;51.938;4.348;2024-02-23T12:28:48;99905.03;;;10.11;96.84
17362;BME280;8798;51.938;4.348;2024-02-23T12:31:23;99882.06;;;10.09;96.79
17362;BME280;8798;51.938;4.348;2024-02-23T12:33:51;99864.28;;;10.08;97.12
17362;BME280;8798;51.938;4.348;2024-02-23T12:36:19;99887.56;;;10.16;96.86
17362;BME280;8798;51.938;4.348;2024-02-23T12:38:48;99873.47;;;10.13;97.08
17362;BME280;8798;51.938;4.348;2024-02-23T12:41:17;99894.09;;;10.21;97.22
17362;BME280;8798;51.938;4.348;2024-02-23T12:43:45;99889.38;;;10.23;96.96
17362;BME280;8798;51.938;4.348;2024-02-23T12:46:14;99897.09;;;10.26;96.68
17362;BME280;8798;51.938;4.348;2024-02-23T12:48:42;99909.19;;;10.30;97.02
17362;BME280;8798;51.938;4.348;2024-02-23T12:51:10;99930.63;;;10.39;97.18
17362;BME280;8798;51.938;4.348;2024-02-23T12:53:40;99943.19;;;10.46;97.16
17362;BME280;8798;51.938;4.348;2024-02-23T12:56:11;99939.66;;;10.46;96.67
17362;BME280;8798;51.938;4.348;2024-02-23T12:58:41;99942.84;;;10.49;96.74
17362;BME280;8798;51.938;4.348;2024-02-23T13:01:10;99918.84;;;10.48;96.86
17362;BME280;8798;51.938;4.348;2024-02-23T13:03:39;99883.97;;;10.40;96.67
17362;BME280;8798;51.938;4.348;2024-02-23T13:06:08;99850.44;;;10.36;96.82
17362;BME280;8798;51.938;4.348;2024-02-23T13:08:37;99834.69;;;10.32;96.76
17362;BME280;8798;51.938;4.348;2024-02-23T13:11:05;99783.03;;;10.22;96.90
17362;BME280;8798;51.938;4.348;2024-02-23T13:13:35;99755.06;;;10.17;97.00
17362;BME280;8798;51.938;4.348;2024-02-23T13:16:06;99710.34;;;10.09;97.15
17362;BME280;8798;51.938;4.348;2024-02-23T13:18:35;99662.06;;;10.01;97.10
17362;BME280;8798;51.938;4.348;2024-02-23T13:21:03;99618.56;;;9.90;97.18
17362;BME280;8798;51.938;4.348;2024-02-23T13:23:31;99580.06;;;9.83;97.20
17362;BME280;8798;51.938;4.348;2024-02-23T13:25:59;99556.28;;;9.80;97.13
17362;BME280;8798;51.938;4.348;2024-02-23T13:28:30;99534.53;;;9.75;97.12